sensor_id;sensor_type;location;lat;lon;timestamp;P1;durP1;ratioP1;P2;durP2;ratioP2
45198;SDS011;30941;46.422;18.772;2022-09-01T00:01:28;6.55;;;5.05;;
45198;SDS011;30941;46.422;18.772;2022-09-01T00:03:55;7.38;;;5.63;;
45198;SDS011;30941;46.422;18.772;2022-09-01T00:06:23;7.25;;;5.20;;
45198;SDS011;30941;46.422;18.772;2022-09-01T00:08:52;7.00;;;5.68;;
45198;SDS011;30941;46.422;18.772;2022-09-01T00:11:19;7.35;;;5.80;;
45198;SDS011;30941;46.422;18.772;2022-09-01T00:13:45;9.07;;;5.85;;
45198;SDS011;30941;46.422;18.772;2022-09-01T00:16:12;11.25;;;5.90;;
45198;SDS011;30941;46.422;18.772;2022-09-01T00:18:43;9.82;;;5.32;;
45198;SDS011;30941;46.422;18.772;2022-09-01T00:21:11;7.70;;;5.40;;
45198;SDS011;30941;46.422;18.772;2022-09-01T00:23:37;5.90;;;4.90;;
45198;SDS011;30941;46.422;18.772;2022-09-01T00:26:03;8.60;;;5.07;;
45198;SDS011;30941;46.422;18.772;2022-09-01T00:28:31;7.05;;;5.03;;
45198;SDS011;30941;46.422;18.772;2022-09-01T00:30:57;10.05;;;5.25;;
45198;SDS011;30941;46.422;18.772;2022-09-01T00:33:23;6.22;;;4.85;;
45198;SDS011;30941;46.422;18.772;2022-09-01T00:35:48;5.35;;;4.53;;
45198;SDS011;30941;46.422;18.772;2022-09-01T00:38:13;7.07;;;5.38;;
45198;SDS011;30941;46.422;18.772;2022-09-01T00:40:39;8.35;;;4.82;;
45198;SDS011;30941;46.422;18.772;2022-09-01T00:43:20;6.80;;;4.50;;
45198;SDS011;30941;46.422;18.772;2022-09-01T00:45:47;6.20;;;5.18;;
45198;SDS011;30941;46.422;18.772;2022-09-01T00:48:15;6.70;;;4.25;;
45198;SDS011;30941;46.422;18.772;2022-09-01T00:50:41;5.65;;;4.40;;
45198;SDS011;30941;46.422;18.772;2022-09-01T00:53:08;5.85;;;3.45;;
45198;SDS011;30941;46.422;18.772;2022-09-01T00:55:34;6.90;;;4.05;;
45198;SDS011;30941;46.422;18.772;2022-09-01T00:58:02;5.85;;;4.40;;
45198;SDS011;30941;46.422;18.772;2022-09-01T01:00:29;7.05;;;3.75;;
45198;SDS011;30941;46.422;18.772;2022-09-01T01:02:56;6.10;;;3.20;;
45198;SDS011;30941;46.422;18.772;2022-09-01T01:05:22;4.93;;;3.53;;
45198;SDS011;30941;46.422;18.772;2022-09-01T01:07:57;4.50;;;3.50;;
45198;SDS011;30941;46.422;18.772;2022-09-01T01:10:24;7.07;;;3.45;;
45198;SDS011;30941;46.422;18.772;2022-09-01T01:12:50;4.18;;;3.13;;
45198;SDS011;30941;46.422;18.772;2022-09-01T01:15:16;4.63;;;2.90;;
45198;SDS011;30941;46.422;18.772;2022-09-01T01:17:43;3.40;;;3.00;;
45198;SDS011;30941;46.422;18.772;2022-09-01T01:20:08;4.70;;;2.95;;
45198;SDS011;30941;46.422;18.772;2022-09-01T01:22:58;6.22;;;3.70;;
45198;SDS011;30941;46.422;18.772;2022-09-01T01:28:13;4.07;;;2.55;;
45198;SDS011;30941;46.422;18.772;2022-09-01T01:30:48;3.97;;;2.47;;
45198;SDS011;30941;46.422;18.772;2022-09-01T01:33:28;4.05;;;2.83;;
45198;SDS011;30941;46.422;18.772;2022-09-01T01:35:56;4.72;;;2.85;;
45198;SDS011;30941;46.422;18.772;2022-09-01T01:38:24;3.88;;;2.60;;
45198;SDS011;30941;46.422;18.772;2022-09-01T01:40:51;6.93;;;3.00;;
45198;SDS011;30941;46.422;18.772;2022-09-01T01:43:18;4.80;;;2.90;;
45198;SDS011;30941;46.422;18.772;2022-09-01T01:45:46;4.72;;;2.75;;
45198;SDS011;30941;46.422;18.772;2022-09-01T01:48:14;4.30;;;2.75;;
45198;SDS011;30941;46.422;18.772;2022-09-01T01:50:42;5.35;;;2.60;;
45198;SDS011;30941;46.422;18.772;2022-09-01T01:53:10;7.40;;;2.58;;
45198;SDS011;30941;46.422;18.772;2022-09-01T01:55:41;7.03;;;2.58;;
45198;SDS011;30941;46.422;18.772;2022-09-01T01:58:07;4.13;;;2.70;;
45198;SDS011;30941;46.422;18.772;2022-09-01T02:00:35;3.78;;;2.10;;
45198;SDS011;30941;46.422;18.772;2022-09-01T02:03:02;4.15;;;2.65;;
45198;SDS011;30941;46.422;18.772;2022-09-01T02:05:29;3.92;;;2.38;;
45198;SDS011;30941;46.422;18.772;2022-09-01T02:08:00;4.28;;;2.30;;
45198;SDS011;30941;46.422;18.772;2022-09-01T02:10:37;5.03;;;2.67;;
45198;SDS011;30941;46.422;18.772;2022-09-01T02:13:06;3.42;;;2.50;;
45198;SDS011;30941;46.422;18.772;2022-09-01T02:15:33;4.93;;;2.55;;
45198;SDS011;30941;46.422;18.772;2022-09-01T02:18:09;5.97;;;2.50;;
45198;SDS011;30941;46.422;18.772;2022-09-01T02:20:37;3.85;;;2.55;;
45198;SDS011;30941;46.422;18.772;2022-09-01T02:23:02;3.28;;;2.28;;
45198;SDS011;30941;46.422;18.772;2022-09-01T02:25:36;4.78;;;2.65;;
45198;SDS011;30941;46.422;18.772;2022-09-01T02:28:08;5.15;;;2.85;;
45198;SDS011;30941;46.422;18.772;2022-09-01T02:30:40;5.55;;;2.80;;
45198;SDS011;30941;46.422;18.772;2022-09-01T02:33:10;3.55;;;2.30;;
45198;SDS011;30941;46.422;18.772;2022-09-01T02:35:48;4.50;;;2.35;;
45198;SDS011;30941;46.422;18.772;2022-09-01T02:38:15;3.75;;;2.45;;
45198;SDS011;30941;46.422;18.772;2022-09-01T02:40:42;4.38;;;2.25;;
45198;SDS011;30941;46.422;18.772;2022-09-01T02:43:11;4.13;;;2.38;;
45198;SDS011;30941;46.422;18.772;2022-09-01T02:45:37;3.60;;;2.55;;
45198;SDS011;30941;46.422;18.772;2022-09-01T02:48:04;4.15;;;2.25;;
45198;SDS011;30941;46.422;18.772;2022-09-01T02:50:33;2.90;;;2.42;;
45198;SDS011;30941;46.422;18.772;2022-09-01T02:52:59;3.25;;;2.20;;
45198;SDS011;30941;46.422;18.772;2022-09-01T02:55:26;6.22;;;2.40;;
45198;SDS011;30941;46.422;18.772;2022-09-01T02:57:51;5.53;;;2.47;;
45198;SDS011;30941;46.422;18.772;2022-09-01T03:00:21;5.10;;;2.38;;
45198;SDS011;30941;46.422;18.772;2022-09-01T03:02:53;3.35;;;2.15;;
45198;SDS011;30941;46.422;18.772;2022-09-01T03:05:21;3.83;;;2.15;;
45198;SDS011;30941;46.422;18.772;2022-09-01T03:07:53;5.50;;;2.30;;
45198;SDS011;30941;46.422;18.772;2022-09-01T03:10:28;4.90;;;2.17;;
45198;SDS011;30941;46.422;18.772;2022-09-01T03:13:00;3.78;;;2.00;;
45198;SDS011;30941;46.422;18.772;2022-09-01T03:15:28;3.92;;;2.30;;
45198;SDS011;30941;46.422;18.772;2022-09-01T03:17:53;3.67;;;2.28;;
45198;SDS011;30941;46.422;18.772;2022-09-01T03:20:19;4.05;;;2.55;;
45198;SDS011;30941;46.422;18.772;2022-09-01T03:22:46;2.95;;;1.90;;
45198;SDS011;30941;46.422;18.772;2022-09-01T03:25:13;2.90;;;1.95;;
45198;SDS011;30941;46.422;18.772;2022-09-01T03:27:39;4.30;;;2.35;;
45198;SDS011;30941;46.422;18.772;2022-09-01T03:30:04;3.67;;;2.10;;
45198;SDS011;30941;46.422;18.772;2022-09-01T03:32:30;4.43;;;2.30;;
45198;SDS011;30941;46.422;18.772;2022-09-01T03:34:56;5.63;;;2.63;;
45198;SDS011;30941;46.422;18.772;2022-09-01T03:37:22;3.90;;;2.50;;
45198;SDS011;30941;46.422;18.772;2022-09-01T03:39:48;3.40;;;2.13;;
45198;SDS011;30941;46.422;18.772;2022-09-01T03:42:13;3.45;;;2.00;;
45198;SDS011;30941;46.422;18.772;2022-09-01T03:44:44;5.00;;;1.88;;
45198;SDS011;30941;46.422;18.772;2022-09-01T03:47:09;4.10;;;2.50;;
45198;SDS011;30941;46.422;18.772;2022-09-01T03:49:35;3.72;;;2.17;;
45198;SDS011;30941;46.422;18.772;2022-09-01T03:52:04;4.28;;;2.30;;
45198;SDS011;30941;46.422;18.772;2022-09-01T03:54:33;4.50;;;2.45;;
45198;SDS011;30941;46.422;18.772;2022-09-01T03:56:58;2.78;;;1.88;;
45198;SDS011;30941;46.422;18.772;2022-09-01T03:59:24;3.00;;;2.05;;
45198;SDS011;30941;46.422;18.772;2022-09-01T04:01:52;4.38;;;2.30;;
45198;SDS011;30941;46.422;18.772;2022-09-01T04:04:18;3.88;;;2.00;;
45198;SDS011;30941;46.422;18.772;2022-09-01T04:06:44;3.85;;;2.30;;
45198;SDS011;30941;46.422;18.772;2022-09-01T04:09:10;2.58;;;1.85;;
45198;SDS011;30941;46.422;18.772;2022-09-01T04:11:36;4.47;;;2.33;;
45198;SDS011;30941;46.422;18.772;2022-09-01T04:14:03;4.45;;;2.67;;
45198;SDS011;30941;46.422;18.772;2022-09-01T04:16:31;5.32;;;2.30;;
45198;SDS011;30941;46.422;18.772;2022-09-01T04:19:17;3.45;;;2.20;;
45198;SDS011;30941;46.422;18.772;2022-09-01T04:21:55;3.75;;;2.28;;
45198;SDS011;30941;46.422;18.772;2022-09-01T04:24:24;5.97;;;3.10;;
45198;SDS011;30941;46.422;18.772;2022-09-01T04:26:52;3.47;;;2.30;;
45198;SDS011;30941;46.422;18.772;2022-09-01T04:29:21;4.43;;;2.60;;
45198;SDS011;30941;46.422;18.772;2022-09-01T04:31:57;3.85;;;2.85;;
45198;SDS011;30941;46.422;18.772;2022-09-01T04:34:28;3.88;;;2.72;;
45198;SDS011;30941;46.422;18.772;2022-09-01T04:37:01;4.97;;;2.85;;
45198;SDS011;30941;46.422;18.772;2022-09-01T04:39:27;6.50;;;2.70;;
45198;SDS011;30941;46.422;18.772;2022-09-01T04:41:53;6.22;;;2.78;;
45198;SDS011;30941;46.422;18.772;2022-09-01T04:44:19;5.75;;;3.22;;
45198;SDS011;30941;46.422;18.772;2022-09-01T04:46:46;5.05;;;2.53;;
45198;SDS011;30941;46.422;18.772;2022-09-01T04:49:13;4.35;;;2.50;;
45198;SDS011;30941;46.422;18.772;2022-09-01T04:51:44;4.47;;;3.20;;
45198;SDS011;30941;46.422;18.772;2022-09-01T04:54:11;6.40;;;2.38;;
45198;SDS011;30941;46.422;18.772;2022-09-01T04:56:39;5.78;;;2.88;;
45198;SDS011;30941;46.422;18.772;2022-09-01T04:59:09;3.13;;;2.10;;
45198;SDS011;30941;46.422;18.772;2022-09-01T05:01:36;5.53;;;2.45;;
45198;SDS011;30941;46.422;18.772;2022-09-01T05:04:29;3.25;;;2.30;;
45198;SDS011;30941;46.422;18.772;2022-09-01T05:06:58;3.40;;;2.33;;
45198;SDS011;30941;46.422;18.772;2022-09-01T05:09:25;3.70;;;2.13;;
45198;SDS011;30941;46.422;18.772;2022-09-01T05:11:55;3.78;;;2.58;;
45198;SDS011;30941;46.422;18.772;2022-09-01T05:14:22;3.60;;;2.00;;
45198;SDS011;30941;46.422;18.772;2022-09-01T05:16:48;3.88;;;2.08;;
45198;SDS011;30941;46.422;18.772;2022-09-01T05:19:15;2.83;;;2.03;;
45198;SDS011;30941;46.422;18.772;2022-09-01T05:21:42;4.35;;;2.28;;
45198;SDS011;30941;46.422;18.772;2022-09-01T05:24:09;4.63;;;2.15;;
45198;SDS011;30941;46.422;18.772;2022-09-01T05:26:36;4.22;;;1.92;;
45198;SDS011;30941;46.422;18.772;2022-09-01T05:29:05;2.85;;;1.98;;
45198;SDS011;30941;46.422;18.772;2022-09-01T05:31:42;3.28;;;2.10;;
45198;SDS011;30941;46.422;18.772;2022-09-01T05:34:11;3.65;;;2.03;;
45198;SDS011;30941;46.422;18.772;2022-09-01T05:36:41;4.18;;;2.28;;
45198;SDS011;30941;46.422;18.772;2022-09-01T05:39:08;4.13;;;2.10;;
45198;SDS011;30941;46.422;18.772;2022-09-01T05:41:39;5.38;;;2.45;;
45198;SDS011;30941;46.422;18.772;2022-09-01T05:44:05;4.57;;;2.42;;
45198;SDS011;30941;46.422;18.772;2022-09-01T05:46:32;5.45;;;2.15;;
45198;SDS011;30941;46.422;18.772;2022-09-01T05:48:58;5.25;;;2.38;;
45198;SDS011;30941;46.422;18.772;2022-09-01T05:51:25;3.95;;;2.40;;
45198;SDS011;30941;46.422;18.772;2022-09-01T05:53:53;4.38;;;2.65;;
45198;SDS011;30941;46.422;18.772;2022-09-01T05:56:23;3.90;;;2.40;;
45198;SDS011;30941;46.422;18.772;2022-09-01T05:58:50;4.13;;;2.13;;
45198;SDS011;30941;46.422;18.772;2022-09-01T06:01:17;4.47;;;2.22;;
45198;SDS011;30941;46.422;18.772;2022-09-01T06:03:49;3.42;;;2.28;;
45198;SDS011;30941;46.422;18.772;2022-09-01T06:06:18;4.57;;;2.72;;
45198;SDS011;30941;46.422;18.772;2022-09-01T06:08:51;4.90;;;2.77;;
45198;SDS011;30941;46.422;18.772;2022-09-01T06:11:17;3.35;;;2.30;;
45198;SDS011;30941;46.422;18.772;2022-09-01T06:13:43;3.33;;;2.35;;
45198;SDS011;30941;46.422;18.772;2022-09-01T06:16:11;3.70;;;2.40;;
45198;SDS011;30941;46.422;18.772;2022-09-01T06:18:39;4.75;;;2.45;;
45198;SDS011;30941;46.422;18.772;2022-09-01T06:21:07;5.80;;;3.20;;
45198;SDS011;30941;46.422;18.772;2022-09-01T06:23:33;5.90;;;3.97;;
45198;SDS011;30941;46.422;18.772;2022-09-01T06:26:00;7.32;;;4.75;;
45198;SDS011;30941;46.422;18.772;2022-09-01T06:28:27;8.85;;;4.55;;
45198;SDS011;30941;46.422;18.772;2022-09-01T06:30:54;11.38;;;4.50;;
45198;SDS011;30941;46.422;18.772;2022-09-01T06:33:21;4.97;;;3.35;;
45198;SDS011;30941;46.422;18.772;2022-09-01T06:35:50;4.57;;;2.75;;
45198;SDS011;30941;46.422;18.772;2022-09-01T06:38:16;5.25;;;3.28;;
45198;SDS011;30941;46.422;18.772;2022-09-01T06:40:43;5.00;;;3.55;;
45198;SDS011;30941;46.422;18.772;2022-09-01T06:43:09;8.48;;;5.40;;
45198;SDS011;30941;46.422;18.772;2022-09-01T06:45:39;11.63;;;6.18;;
45198;SDS011;30941;46.422;18.772;2022-09-01T06:48:06;9.02;;;6.50;;
45198;SDS011;30941;46.422;18.772;2022-09-01T06:50:31;9.23;;;6.25;;
45198;SDS011;30941;46.422;18.772;2022-09-01T06:52:57;5.63;;;3.95;;
45198;SDS011;30941;46.422;18.772;2022-09-01T06:55:34;6.32;;;4.00;;
45198;SDS011;30941;46.422;18.772;2022-09-01T06:58:03;6.28;;;4.65;;
45198;SDS011;30941;46.422;18.772;2022-09-01T07:00:31;6.38;;;4.80;;
45198;SDS011;30941;46.422;18.772;2022-09-01T07:03:06;5.65;;;3.08;;
45198;SDS011;30941;46.422;18.772;2022-09-01T07:05:33;4.25;;;2.58;;
45198;SDS011;30941;46.422;18.772;2022-09-01T07:08:03;6.30;;;2.95;;
45198;SDS011;30941;46.422;18.772;2022-09-01T07:10:31;3.72;;;2.50;;
45198;SDS011;30941;46.422;18.772;2022-09-01T07:12:57;3.92;;;2.50;;
45198;SDS011;30941;46.422;18.772;2022-09-01T07:15:24;5.15;;;3.17;;
45198;SDS011;30941;46.422;18.772;2022-09-01T07:17:53;4.45;;;2.53;;
45198;SDS011;30941;46.422;18.772;2022-09-01T07:20:21;3.47;;;2.60;;
45198;SDS011;30941;46.422;18.772;2022-09-01T07:22:49;4.10;;;2.63;;
45198;SDS011;30941;46.422;18.772;2022-09-01T07:25:16;3.33;;;2.15;;
45198;SDS011;30941;46.422;18.772;2022-09-01T07:27:42;4.85;;;2.35;;
45198;SDS011;30941;46.422;18.772;2022-09-01T07:30:13;3.88;;;2.30;;
45198;SDS011;30941;46.422;18.772;2022-09-01T07:32:39;4.95;;;2.40;;
45198;SDS011;30941;46.422;18.772;2022-09-01T07:35:09;3.53;;;2.35;;
45198;SDS011;30941;46.422;18.772;2022-09-01T07:37:35;4.88;;;2.45;;
45198;SDS011;30941;46.422;18.772;2022-09-01T07:40:05;3.53;;;2.38;;
45198;SDS011;30941;46.422;18.772;2022-09-01T07:42:33;4.53;;;3.22;;
45198;SDS011;30941;46.422;18.772;2022-09-01T07:44:58;5.45;;;2.33;;
45198;SDS011;30941;46.422;18.772;2022-09-01T07:47:24;7.20;;;2.70;;
45198;SDS011;30941;46.422;18.772;2022-09-01T07:49:52;4.10;;;2.35;;
45198;SDS011;30941;46.422;18.772;2022-09-01T07:52:18;3.90;;;2.17;;
45198;SDS011;30941;46.422;18.772;2022-09-01T07:54:44;4.72;;;2.20;;
45198;SDS011;30941;46.422;18.772;2022-09-01T07:57:10;4.30;;;2.63;;
45198;SDS011;30941;46.422;18.772;2022-09-01T07:59:35;3.45;;;2.25;;
45198;SDS011;30941;46.422;18.772;2022-09-01T08:02:01;3.05;;;2.17;;
45198;SDS011;30941;46.422;18.772;2022-09-01T08:04:30;4.07;;;2.08;;
45198;SDS011;30941;46.422;18.772;2022-09-01T08:06:58;5.22;;;2.25;;
45198;SDS011;30941;46.422;18.772;2022-09-01T08:09:25;4.07;;;2.85;;
45198;SDS011;30941;46.422;18.772;2022-09-01T08:11:51;2.90;;;2.28;;
45198;SDS011;30941;46.422;18.772;2022-09-01T08:14:17;4.25;;;2.55;;
45198;SDS011;30941;46.422;18.772;2022-09-01T08:16:42;2.92;;;2.35;;
45198;SDS011;30941;46.422;18.772;2022-09-01T08:19:07;4.13;;;2.00;;
45198;SDS011;30941;46.422;18.772;2022-09-01T08:21:33;5.03;;;2.33;;
45198;SDS011;30941;46.422;18.772;2022-09-01T08:23:59;3.85;;;2.10;;
45198;SDS011;30941;46.422;18.772;2022-09-01T08:26:25;3.05;;;2.15;;
45198;SDS011;30941;46.422;18.772;2022-09-01T08:28:52;3.47;;;2.28;;
45198;SDS011;30941;46.422;18.772;2022-09-01T08:31:18;2.55;;;1.90;;
45198;SDS011;30941;46.422;18.772;2022-09-01T08:33:45;3.83;;;2.22;;
45198;SDS011;30941;46.422;18.772;2022-09-01T08:36:12;4.47;;;2.20;;
45198;SDS011;30941;46.422;18.772;2022-09-01T08:38:39;2.95;;;2.10;;
45198;SDS011;30941;46.422;18.772;2022-09-01T08:41:12;2.55;;;1.70;;
45198;SDS011;30941;46.422;18.772;2022-09-01T08:46:25;3.78;;;2.25;;
45198;SDS011;30941;46.422;18.772;2022-09-01T08:48:54;3.13;;;2.10;;
45198;SDS011;30941;46.422;18.772;2022-09-01T08:51:37;3.28;;;2.10;;
45198;SDS011;30941;46.422;18.772;2022-09-01T08:54:09;3.53;;;2.10;;
45198;SDS011;30941;46.422;18.772;2022-09-01T08:56:49;4.05;;;2.40;;
45198;SDS011;30941;46.422;18.772;2022-09-01T08:59:17;3.63;;;2.53;;
45198;SDS011;30941;46.422;18.772;2022-09-01T09:01:59;3.75;;;2.53;;
45198;SDS011;30941;46.422;18.772;2022-09-01T09:09:29;5.25;;;2.88;;
45198;SDS011;30941;46.422;18.772;2022-09-01T09:17:51;4.55;;;3.10;;
45198;SDS011;30941;46.422;18.772;2022-09-01T09:20:23;4.10;;;2.95;;
45198;SDS011;30941;46.422;18.772;2022-09-01T09:22:52;3.83;;;3.00;;
45198;SDS011;30941;46.422;18.772;2022-09-01T09:25:17;5.45;;;3.33;;
45198;SDS011;30941;46.422;18.772;2022-09-01T09:27:44;7.72;;;3.42;;
45198;SDS011;30941;46.422;18.772;2022-09-01T09:30:25;6.30;;;3.42;;
45198;SDS011;30941;46.422;18.772;2022-09-01T09:32:55;4.65;;;3.35;;
45198;SDS011;30941;46.422;18.772;2022-09-01T09:35:33;4.97;;;3.47;;
45198;SDS011;30941;46.422;18.772;2022-09-01T09:43:24;4.32;;;3.13;;
45198;SDS011;30941;46.422;18.772;2022-09-01T09:45:51;4.10;;;2.63;;
45198;SDS011;30941;46.422;18.772;2022-09-01T09:48:48;4.85;;;2.78;;
45198;SDS011;30941;46.422;18.772;2022-09-01T09:51:34;5.82;;;3.08;;
45198;SDS011;30941;46.422;18.772;2022-09-01T09:56:38;4.10;;;2.70;;
45198;SDS011;30941;46.422;18.772;2022-09-01T09:59:42;7.40;;;3.40;;
45198;SDS011;30941;46.422;18.772;2022-09-01T10:02:16;5.70;;;3.22;;
45198;SDS011;30941;46.422;18.772;2022-09-01T10:05:00;6.88;;;3.17;;
45198;SDS011;30941;46.422;18.772;2022-09-01T10:07:34;4.75;;;2.97;;
45198;SDS011;30941;46.422;18.772;2022-09-01T10:10:04;4.53;;;2.90;;
45198;SDS011;30941;46.422;18.772;2022-09-01T10:12:31;5.22;;;3.33;;
45198;SDS011;30941;46.422;18.772;2022-09-01T10:15:02;5.18;;;3.10;;
45198;SDS011;30941;46.422;18.772;2022-09-01T10:17:42;5.28;;;2.78;;
45198;SDS011;30941;46.422;18.772;2022-09-01T10:20:13;4.03;;;2.53;;
45198;SDS011;30941;46.422;18.772;2022-09-01T10:22:45;6.88;;;2.85;;
45198;SDS011;30941;46.422;18.772;2022-09-01T10:25:13;3.97;;;2.63;;
45198;SDS011;30941;46.422;18.772;2022-09-01T10:27:42;4.72;;;2.78;;
45198;SDS011;30941;46.422;18.772;2022-09-01T10:30:17;3.80;;;2.53;;
45198;SDS011;30941;46.422;18.772;2022-09-01T10:35:33;5.13;;;2.83;;
45198;SDS011;30941;46.422;18.772;2022-09-01T10:37:59;5.85;;;3.20;;
45198;SDS011;30941;46.422;18.772;2022-09-01T10:40:38;7.35;;;3.25;;
45198;SDS011;30941;46.422;18.772;2022-09-01T10:43:21;4.88;;;3.05;;
45198;SDS011;30941;46.422;18.772;2022-09-01T10:45:52;5.50;;;3.30;;
45198;SDS011;30941;46.422;18.772;2022-09-01T10:50:48;6.53;;;3.80;;
45198;SDS011;30941;46.422;18.772;2022-09-01T11:06:43;6.60;;;4.60;;
45198;SDS011;30941;46.422;18.772;2022-09-01T11:09:21;6.78;;;4.55;;
45198;SDS011;30941;46.422;18.772;2022-09-01T11:14:21;9.80;;;5.07;;
45198;SDS011;30941;46.422;18.772;2022-09-01T11:19:43;6.03;;;4.50;;
45198;SDS011;30941;46.422;18.772;2022-09-01T11:22:22;9.25;;;4.65;;
45198;SDS011;30941;46.422;18.772;2022-09-01T11:30:21;7.53;;;5.30;;
45198;SDS011;30941;46.422;18.772;2022-09-01T11:32:49;8.07;;;5.07;;
45198;SDS011;30941;46.422;18.772;2022-09-01T11:35:19;7.90;;;5.10;;
45198;SDS011;30941;46.422;18.772;2022-09-01T11:37:47;5.53;;;4.20;;
45198;SDS011;30941;46.422;18.772;2022-09-01T11:40:17;6.68;;;3.90;;
45198;SDS011;30941;46.422;18.772;2022-09-01T11:43:12;6.25;;;3.63;;
45198;SDS011;30941;46.422;18.772;2022-09-01T11:48:33;5.72;;;4.05;;
45198;SDS011;30941;46.422;18.772;2022-09-01T11:51:00;5.72;;;3.72;;
45198;SDS011;30941;46.422;18.772;2022-09-01T11:53:27;6.63;;;3.67;;
45198;SDS011;30941;46.422;18.772;2022-09-01T11:55:54;5.30;;;3.95;;
45198;SDS011;30941;46.422;18.772;2022-09-01T12:00:53;5.38;;;3.50;;
45198;SDS011;30941;46.422;18.772;2022-09-01T12:03:21;7.38;;;4.38;;
45198;SDS011;30941;46.422;18.772;2022-09-01T12:05:52;5.38;;;4.05;;
45198;SDS011;30941;46.422;18.772;2022-09-01T12:08:26;7.70;;;4.20;;
45198;SDS011;30941;46.422;18.772;2022-09-01T12:11:07;7.20;;;4.20;;
45198;SDS011;30941;46.422;18.772;2022-09-01T12:13:35;5.55;;;4.35;;
45198;SDS011;30941;46.422;18.772;2022-09-01T12:16:02;6.28;;;4.00;;
45198;SDS011;30941;46.422;18.772;2022-09-01T12:18:30;6.03;;;4.00;;
45198;SDS011;30941;46.422;18.772;2022-09-01T12:21:01;6.82;;;4.85;;
45198;SDS011;30941;46.422;18.772;2022-09-01T12:23:32;7.80;;;4.68;;
45198;SDS011;30941;46.422;18.772;2022-09-01T12:26:05;5.40;;;4.57;;
45198;SDS011;30941;46.422;18.772;2022-09-01T12:28:32;6.57;;;4.80;;
45198;SDS011;30941;46.422;18.772;2022-09-01T12:31:00;6.55;;;4.78;;
45198;SDS011;30941;46.422;18.772;2022-09-01T12:33:27;6.13;;;4.25;;
45198;SDS011;30941;46.422;18.772;2022-09-01T12:36:12;9.45;;;4.40;;
45198;SDS011;30941;46.422;18.772;2022-09-01T12:38:39;6.50;;;4.20;;
45198;SDS011;30941;46.422;18.772;2022-09-01T12:41:21;7.78;;;3.83;;
45198;SDS011;30941;46.422;18.772;2022-09-01T12:46:52;7.05;;;3.50;;
45198;SDS011;30941;46.422;18.772;2022-09-01T12:49:18;5.63;;;3.85;;
45198;SDS011;30941;46.422;18.772;2022-09-01T12:51:49;6.00;;;3.38;;
45198;SDS011;30941;46.422;18.772;2022-09-01T12:54:15;5.15;;;3.30;;
45198;SDS011;30941;46.422;18.772;2022-09-01T12:56:48;5.90;;;3.88;;
45198;SDS011;30941;46.422;18.772;2022-09-01T12:59:22;4.07;;;3.10;;
45198;SDS011;30941;46.422;18.772;2022-09-01T13:01:49;8.95;;;3.60;;
45198;SDS011;30941;46.422;18.772;2022-09-01T13:04:22;5.45;;;3.45;;
45198;SDS011;30941;46.422;18.772;2022-09-01T13:06:50;6.40;;;3.40;;
45198;SDS011;30941;46.422;18.772;2022-09-01T13:09:16;5.50;;;3.60;;
45198;SDS011;30941;46.422;18.772;2022-09-01T13:11:42;5.63;;;3.40;;
45198;SDS011;30941;46.422;18.772;2022-09-01T13:14:11;9.63;;;3.60;;
45198;SDS011;30941;46.422;18.772;2022-09-01T13:16:37;5.47;;;3.80;;
45198;SDS011;30941;46.422;18.772;2022-09-01T13:19:03;6.78;;;3.60;;
45198;SDS011;30941;46.422;18.772;2022-09-01T13:21:31;5.38;;;3.67;;
45198;SDS011;30941;46.422;18.772;2022-09-01T13:23:58;5.70;;;3.25;;
45198;SDS011;30941;46.422;18.772;2022-09-01T13:26:24;4.13;;;3.00;;
45198;SDS011;30941;46.422;18.772;2022-09-01T13:28:50;5.30;;;3.30;;
45198;SDS011;30941;46.422;18.772;2022-09-01T13:31:17;5.35;;;3.20;;
45198;SDS011;30941;46.422;18.772;2022-09-01T13:33:42;4.60;;;3.30;;
45198;SDS011;30941;46.422;18.772;2022-09-01T13:36:08;4.50;;;2.92;;
45198;SDS011;30941;46.422;18.772;2022-09-01T13:38:33;4.43;;;3.00;;
45198;SDS011;30941;46.422;18.772;2022-09-01T13:40:59;5.35;;;3.40;;
45198;SDS011;30941;46.422;18.772;2022-09-01T13:43:25;5.07;;;3.08;;
45198;SDS011;30941;46.422;18.772;2022-09-01T13:45:51;5.45;;;3.60;;
45198;SDS011;30941;46.422;18.772;2022-09-01T13:48:17;5.07;;;2.95;;
45198;SDS011;30941;46.422;18.772;2022-09-01T13:50:46;7.47;;;3.58;;
45198;SDS011;30941;46.422;18.772;2022-09-01T13:53:16;5.10;;;3.10;;
45198;SDS011;30941;46.422;18.772;2022-09-01T13:55:42;5.68;;;3.50;;
45198;SDS011;30941;46.422;18.772;2022-09-01T13:58:08;5.22;;;3.70;;
45198;SDS011;30941;46.422;18.772;2022-09-01T14:00:35;7.75;;;3.28;;
45198;SDS011;30941;46.422;18.772;2022-09-01T14:03:03;5.95;;;3.33;;
45198;SDS011;30941;46.422;18.772;2022-09-01T14:05:32;7.35;;;3.42;;
45198;SDS011;30941;46.422;18.772;2022-09-01T14:08:00;5.22;;;3.28;;
45198;SDS011;30941;46.422;18.772;2022-09-01T14:10:26;7.07;;;3.10;;
45198;SDS011;30941;46.422;18.772;2022-09-01T14:12:53;6.38;;;3.50;;
45198;SDS011;30941;46.422;18.772;2022-09-01T14:15:19;4.80;;;3.38;;
45198;SDS011;30941;46.422;18.772;2022-09-01T14:17:46;4.63;;;3.20;;
45198;SDS011;30941;46.422;18.772;2022-09-01T14:20:15;5.35;;;3.10;;
45198;SDS011;30941;46.422;18.772;2022-09-01T14:22:43;3.97;;;3.00;;
45198;SDS011;30941;46.422;18.772;2022-09-01T14:25:09;6.35;;;3.28;;
45198;SDS011;30941;46.422;18.772;2022-09-01T14:27:35;6.15;;;3.20;;
45198;SDS011;30941;46.422;18.772;2022-09-01T14:30:01;7.55;;;3.50;;
45198;SDS011;30941;46.422;18.772;2022-09-01T14:32:26;6.80;;;3.50;;
45198;SDS011;30941;46.422;18.772;2022-09-01T14:34:53;8.77;;;3.60;;
45198;SDS011;30941;46.422;18.772;2022-09-01T14:37:19;4.47;;;3.30;;
45198;SDS011;30941;46.422;18.772;2022-09-01T14:39:49;5.10;;;2.97;;
45198;SDS011;30941;46.422;18.772;2022-09-01T14:42:15;6.07;;;3.50;;
45198;SDS011;30941;46.422;18.772;2022-09-01T14:44:40;6.65;;;3.70;;
45198;SDS011;30941;46.422;18.772;2022-09-01T14:47:07;4.40;;;3.40;;
45198;SDS011;30941;46.422;18.772;2022-09-01T14:49:33;6.55;;;3.83;;
45198;SDS011;30941;46.422;18.772;2022-09-01T14:52:04;7.15;;;3.88;;
45198;SDS011;30941;46.422;18.772;2022-09-01T14:54:35;6.25;;;4.07;;
45198;SDS011;30941;46.422;18.772;2022-09-01T14:57:02;6.30;;;3.70;;
45198;SDS011;30941;46.422;18.772;2022-09-01T14:59:28;4.57;;;3.70;;
45198;SDS011;30941;46.422;18.772;2022-09-01T15:01:54;6.22;;;3.80;;
45198;SDS011;30941;46.422;18.772;2022-09-01T15:04:20;5.72;;;3.67;;
45198;SDS011;30941;46.422;18.772;2022-09-01T15:06:45;4.65;;;3.75;;
45198;SDS011;30941;46.422;18.772;2022-09-01T15:09:17;7.63;;;3.58;;
45198;SDS011;30941;46.422;18.772;2022-09-01T15:11:42;5.38;;;3.25;;
45198;SDS011;30941;46.422;18.772;2022-09-01T15:14:08;4.68;;;3.60;;
45198;SDS011;30941;46.422;18.772;2022-09-01T15:16:33;5.78;;;3.90;;
45198;SDS011;30941;46.422;18.772;2022-09-01T15:19:03;4.95;;;3.58;;
45198;SDS011;30941;46.422;18.772;2022-09-01T15:21:30;6.35;;;4.03;;
45198;SDS011;30941;46.422;18.772;2022-09-01T15:23:58;5.78;;;3.90;;
45198;SDS011;30941;46.422;18.772;2022-09-01T15:26:24;12.30;;;5.00;;
45198;SDS011;30941;46.422;18.772;2022-09-01T15:28:50;4.78;;;3.72;;
45198;SDS011;30941;46.422;18.772;2022-09-01T15:31:16;4.65;;;3.50;;
45198;SDS011;30941;46.422;18.772;2022-09-01T15:33:44;5.25;;;4.05;;
45198;SDS011;30941;46.422;18.772;2022-09-01T15:36:20;4.97;;;3.58;;
45198;SDS011;30941;46.422;18.772;2022-09-01T15:38:46;4.57;;;3.70;;
45198;SDS011;30941;46.422;18.772;2022-09-01T15:41:16;4.43;;;3.20;;
45198;SDS011;30941;46.422;18.772;2022-09-01T15:43:42;5.65;;;3.35;;
45198;SDS011;30941;46.422;18.772;2022-09-01T15:46:08;4.82;;;3.42;;